sensor_id;sensor_type;location;lat;lon;timestamp;P1;durP1;ratioP1;P2;durP2;ratioP2
63087;SDS011;49173;43.164;27.786;2022-10-28T00:01:35;29.17;;;19.58;;
63087;SDS011;49173;43.164;27.786;2022-10-28T00:04:00;32.17;;;19.25;;
63087;SDS011;49173;43.164;27.786;2022-10-28T00:06:27;28.45;;;18.70;;
63087;SDS011;49173;43.164;27.786;2022-10-28T00:08:56;29.85;;;18.50;;
63087;SDS011;49173;43.164;27.786;2022-10-28T00:11:23;30.33;;;17.70;;
63087;SDS011;49173;43.164;27.786;2022-10-28T00:13:54;28.30;;;18.97;;
63087;SDS011;49173;43.164;27.786;2022-10-28T00:16:23;24.77;;;17.33;;
63087;SDS011;49173;43.164;27.786;2022-10-28T00:18:50;26.23;;;17.05;;
63087;SDS011;49173;43.164;27.786;2022-10-28T00:21:19;25.52;;;16.35;;
63087;SDS011;49173;43.164;27.786;2022-10-28T00:23:47;23.90;;;16.15;;
63087;SDS011;49173;43.164;27.786;2022-10-28T00:26:14;21.95;;;15.32;;
63087;SDS011;49173;43.164;27.786;2022-10-28T00:28:47;20.92;;;14.95;;
63087;SDS011;49173;43.164;27.786;2022-10-28T00:31:15;22.73;;;15.38;;
63087;SDS011;49173;43.164;27.786;2022-10-28T00:33:42;20.08;;;15.30;;
63087;SDS011;49173;43.164;27.786;2022-10-28T00:36:13;18.30;;;15.05;;
63087;SDS011;49173;43.164;27.786;2022-10-28T00:38:39;20.63;;;16.00;;
63087;SDS011;49173;43.164;27.786;2022-10-28T00:41:06;22.08;;;15.73;;
63087;SDS011;49173;43.164;27.786;2022-10-28T00:43:37;22.48;;;16.15;;
63087;SDS011;49173;43.164;27.786;2022-10-28T00:46:09;22.23;;;15.88;;
63087;SDS011;49173;43.164;27.786;2022-10-28T00:48:41;24.80;;;16.73;;
63087;SDS011;49173;43.164;27.786;2022-10-28T00:51:09;23.77;;;17.50;;
63087;SDS011;49173;43.164;27.786;2022-10-28T00:53:35;27.02;;;17.73;;
63087;SDS011;49173;43.164;27.786;2022-10-28T00:56:04;28.73;;;17.20;;
63087;SDS011;49173;43.164;27.786;2022-10-28T00:58:31;25.27;;;17.55;;
63087;SDS011;49173;43.164;27.786;2022-10-28T01:00:57;23.10;;;16.23;;
63087;SDS011;49173;43.164;27.786;2022-10-28T01:03:23;21.77;;;16.17;;
63087;SDS011;49173;43.164;27.786;2022-10-28T01:05:49;23.45;;;17.25;;
63087;SDS011;49173;43.164;27.786;2022-10-28T01:08:16;25.25;;;17.08;;
63087;SDS011;49173;43.164;27.786;2022-10-28T01:13:57;26.60;;;16.77;;
63087;SDS011;49173;43.164;27.786;2022-10-28T01:19:12;26.58;;;17.17;;
63087;SDS011;49173;43.164;27.786;2022-10-28T01:27:22;22.83;;;15.88;;
63087;SDS011;49173;43.164;27.786;2022-10-28T01:30:15;21.60;;;15.45;;
63087;SDS011;49173;43.164;27.786;2022-10-28T01:43:05;23.98;;;15.65;;
63087;SDS011;49173;43.164;27.786;2022-10-28T01:45:40;23.83;;;15.93;;
63087;SDS011;49173;43.164;27.786;2022-10-28T01:48:18;28.27;;;15.93;;
63087;SDS011;49173;43.164;27.786;2022-10-28T01:50:56;26.55;;;15.55;;
63087;SDS011;49173;43.164;27.786;2022-10-28T01:53:29;25.25;;;16.05;;
63087;SDS011;49173;43.164;27.786;2022-10-28T01:56:00;25.05;;;15.73;;
63087;SDS011;49173;43.164;27.786;2022-10-28T01:58:31;25.45;;;16.20;;
63087;SDS011;49173;43.164;27.786;2022-10-28T02:00:59;32.88;;;18.00;;
63087;SDS011;49173;43.164;27.786;2022-10-28T02:05:55;47.60;;;18.45;;
63087;SDS011;49173;43.164;27.786;2022-10-28T02:24:24;113.13;;;20.33;;
63087;SDS011;49173;43.164;27.786;2022-10-28T02:27:19;98.68;;;20.23;;
63087;SDS011;49173;43.164;27.786;2022-10-28T02:30:14;141.77;;;20.92;;
63087;SDS011;49173;43.164;27.786;2022-10-28T02:32:49;92.47;;;22.38;;
63087;SDS011;49173;43.164;27.786;2022-10-28T02:35:24;110.45;;;25.40;;
63087;SDS011;49173;43.164;27.786;2022-10-28T02:37:57;142.85;;;28.00;;
63087;SDS011;49173;43.164;27.786;2022-10-28T02:42:54;214.00;;;28.48;;
63087;SDS011;49173;43.164;27.786;2022-10-28T02:45:29;202.90;;;30.30;;
63087;SDS011;49173;43.164;27.786;2022-10-28T02:48:02;116.13;;;28.75;;
63087;SDS011;49173;43.164;27.786;2022-10-28T02:50:35;157.93;;;32.00;;
63087;SDS011;49173;43.164;27.786;2022-10-28T02:53:09;233.88;;;32.42;;
63087;SDS011;49173;43.164;27.786;2022-10-28T02:55:50;238.93;;;28.67;;
63087;SDS011;49173;43.164;27.786;2022-10-28T02:58:19;294.23;;;28.75;;
63087;SDS011;49173;43.164;27.786;2022-10-28T03:00:45;227.85;;;28.38;;
63087;SDS011;49173;43.164;27.786;2022-10-28T03:03:12;317.40;;;30.42;;
63087;SDS011;49173;43.164;27.786;2022-10-28T03:05:38;269.70;;;29.08;;
63087;SDS011;49173;43.164;27.786;2022-10-28T03:08:04;186.00;;;27.35;;
63087;SDS011;49173;43.164;27.786;2022-10-28T03:10:29;215.88;;;27.50;;
63087;SDS011;49173;43.164;27.786;2022-10-28T03:12:55;241.55;;;25.35;;
63087;SDS011;49173;43.164;27.786;2022-10-28T03:15:21;168.95;;;24.45;;
63087;SDS011;49173;43.164;27.786;2022-10-28T03:17:47;138.52;;;23.85;;
63087;SDS011;49173;43.164;27.786;2022-10-28T03:20:12;164.48;;;23.20;;
63087;SDS011;49173;43.164;27.786;2022-10-28T03:22:38;149.18;;;23.08;;
63087;SDS011;49173;43.164;27.786;2022-10-28T03:25:07;106.93;;;24.10;;
63087;SDS011;49173;43.164;27.786;2022-10-28T03:27:33;92.72;;;21.85;;
63087;SDS011;49173;43.164;27.786;2022-10-28T03:29:58;113.65;;;21.27;;
63087;SDS011;49173;43.164;27.786;2022-10-28T03:32:24;86.60;;;21.13;;
63087;SDS011;49173;43.164;27.786;2022-10-28T03:34:50;137.75;;;20.70;;
63087;SDS011;49173;43.164;27.786;2022-10-28T03:37:16;88.88;;;20.83;;
63087;SDS011;49173;43.164;27.786;2022-10-28T03:39:41;99.32;;;20.10;;
63087;SDS011;49173;43.164;27.786;2022-10-28T03:42:07;93.68;;;19.05;;
63087;SDS011;49173;43.164;27.786;2022-10-28T03:44:33;69.15;;;17.65;;
63087;SDS011;49173;43.164;27.786;2022-10-28T03:46:58;53.47;;;17.00;;
63087;SDS011;49173;43.164;27.786;2022-10-28T03:49:24;39.47;;;15.95;;
63087;SDS011;49173;43.164;27.786;2022-10-28T03:51:50;57.28;;;16.13;;
63087;SDS011;49173;43.164;27.786;2022-10-28T03:54:16;40.88;;;16.73;;
63087;SDS011;49173;43.164;27.786;2022-10-28T03:56:41;71.75;;;16.25;;
63087;SDS011;49173;43.164;27.786;2022-10-28T03:59:08;38.20;;;16.40;;
63087;SDS011;49173;43.164;27.786;2022-10-28T04:01:34;140.30;;;15.85;;
63087;SDS011;49173;43.164;27.786;2022-10-28T04:04:00;94.90;;;15.73;;
63087;SDS011;49173;43.164;27.786;2022-10-28T04:06:25;90.60;;;15.65;;
63087;SDS011;49173;43.164;27.786;2022-10-28T04:08:51;46.88;;;15.25;;
63087;SDS011;49173;43.164;27.786;2022-10-28T04:11:17;93.50;;;15.63;;
63087;SDS011;49173;43.164;27.786;2022-10-28T04:13:42;72.70;;;14.73;;
63087;SDS011;49173;43.164;27.786;2022-10-28T04:16:08;92.47;;;13.48;;
63087;SDS011;49173;43.164;27.786;2022-10-28T04:18:34;76.32;;;14.10;;
63087;SDS011;49173;43.164;27.786;2022-10-28T04:21:00;94.38;;;14.57;;
63087;SDS011;49173;43.164;27.786;2022-10-28T04:23:26;107.55;;;13.75;;
63087;SDS011;49173;43.164;27.786;2022-10-28T04:25:52;131.07;;;15.25;;
63087;SDS011;49173;43.164;27.786;2022-10-28T04:28:19;93.60;;;14.55;;
63087;SDS011;49173;43.164;27.786;2022-10-28T04:30:46;77.97;;;13.48;;
63087;SDS011;49173;43.164;27.786;2022-10-28T04:33:12;46.28;;;11.70;;
63087;SDS011;49173;43.164;27.786;2022-10-28T04:35:38;51.85;;;12.20;;
63087;SDS011;49173;43.164;27.786;2022-10-28T04:38:07;55.83;;;13.35;;
63087;SDS011;49173;43.164;27.786;2022-10-28T04:40:33;31.55;;;11.38;;
63087;SDS011;49173;43.164;27.786;2022-10-28T04:42:59;43.58;;;10.88;;
63087;SDS011;49173;43.164;27.786;2022-10-28T04:45:25;47.15;;;9.63;;
63087;SDS011;49173;43.164;27.786;2022-10-28T04:47:55;41.58;;;9.00;;
63087;SDS011;49173;43.164;27.786;2022-10-28T04:50:25;46.25;;;9.20;;
63087;SDS011;49173;43.164;27.786;2022-10-28T04:52:51;47.35;;;9.02;;
63087;SDS011;49173;43.164;27.786;2022-10-28T04:55:17;35.22;;;8.60;;
63087;SDS011;49173;43.164;27.786;2022-10-28T04:57:51;42.60;;;9.50;;
63087;SDS011;49173;43.164;27.786;2022-10-28T05:00:24;48.53;;;8.65;;
63087;SDS011;49173;43.164;27.786;2022-10-28T05:02:52;42.30;;;9.82;;
63087;SDS011;49173;43.164;27.786;2022-10-28T05:05:18;31.00;;;8.57;;
63087;SDS011;49173;43.164;27.786;2022-10-28T05:07:44;35.22;;;7.57;;
63087;SDS011;49173;43.164;27.786;2022-10-28T05:10:10;26.15;;;8.10;;
63087;SDS011;49173;43.164;27.786;2022-10-28T05:12:40;31.38;;;8.15;;
63087;SDS011;49173;43.164;27.786;2022-10-28T05:15:07;23.73;;;8.00;;
63087;SDS011;49173;43.164;27.786;2022-10-28T05:17:34;20.55;;;8.80;;
63087;SDS011;49173;43.164;27.786;2022-10-28T05:19:59;56.22;;;9.23;;
63087;SDS011;49173;43.164;27.786;2022-10-28T05:22:25;50.22;;;8.77;;
63087;SDS011;49173;43.164;27.786;2022-10-28T05:24:51;30.65;;;9.30;;
63087;SDS011;49173;43.164;27.786;2022-10-28T05:27:17;37.05;;;8.90;;
63087;SDS011;49173;43.164;27.786;2022-10-28T05:29:43;45.00;;;8.80;;
63087;SDS011;49173;43.164;27.786;2022-10-28T05:32:08;95.35;;;9.48;;
63087;SDS011;49173;43.164;27.786;2022-10-28T05:34:34;87.18;;;9.45;;
63087;SDS011;49173;43.164;27.786;2022-10-28T05:37:00;98.80;;;11.30;;
63087;SDS011;49173;43.164;27.786;2022-10-28T05:39:26;27.70;;;12.02;;
63087;SDS011;49173;43.164;27.786;2022-10-28T05:41:53;59.95;;;12.35;;
63087;SDS011;49173;43.164;27.786;2022-10-28T05:44:18;66.07;;;13.52;;
63087;SDS011;49173;43.164;27.786;2022-10-28T05:46:44;83.28;;;15.45;;
63087;SDS011;49173;43.164;27.786;2022-10-28T05:49:10;40.75;;;14.98;;
63087;SDS011;49173;43.164;27.786;2022-10-28T05:51:35;63.58;;;18.48;;
63087;SDS011;49173;43.164;27.786;2022-10-28T05:54:01;39.80;;;15.90;;
63087;SDS011;49173;43.164;27.786;2022-10-28T05:56:27;37.90;;;17.33;;
63087;SDS011;49173;43.164;27.786;2022-10-28T05:58:53;63.53;;;18.00;;
63087;SDS011;49173;43.164;27.786;2022-10-28T06:01:18;47.40;;;19.35;;
63087;SDS011;49173;43.164;27.786;2022-10-28T06:03:44;36.22;;;18.65;;
63087;SDS011;49173;43.164;27.786;2022-10-28T06:06:10;52.58;;;18.67;;
63087;SDS011;49173;43.164;27.786;2022-10-28T06:08:36;36.42;;;19.27;;
63087;SDS011;49173;43.164;27.786;2022-10-28T06:11:01;38.88;;;18.60;;
63087;SDS011;49173;43.164;27.786;2022-10-28T06:13:27;49.00;;;20.38;;
63087;SDS011;49173;43.164;27.786;2022-10-28T06:15:53;47.08;;;19.23;;
63087;SDS011;49173;43.164;27.786;2022-10-28T06:18:21;68.75;;;21.45;;
63087;SDS011;49173;43.164;27.786;2022-10-28T06:20:55;64.97;;;20.25;;
63087;SDS011;49173;43.164;27.786;2022-10-28T06:23:22;58.22;;;22.00;;
63087;SDS011;49173;43.164;27.786;2022-10-28T06:25:51;49.35;;;23.02;;
63087;SDS011;49173;43.164;27.786;2022-10-28T06:28:21;67.60;;;25.77;;
63087;SDS011;49173;43.164;27.786;2022-10-28T06:30:47;60.50;;;24.55;;
63087;SDS011;49173;43.164;27.786;2022-10-28T06:33:13;51.20;;;23.15;;
63087;SDS011;49173;43.164;27.786;2022-10-28T06:35:38;45.45;;;23.92;;
63087;SDS011;49173;43.164;27.786;2022-10-28T06:38:04;40.75;;;21.23;;
63087;SDS011;49173;43.164;27.786;2022-10-28T06:40:30;56.55;;;21.58;;
63087;SDS011;49173;43.164;27.786;2022-10-28T06:42:56;43.50;;;21.58;;
63087;SDS011;49173;43.164;27.786;2022-10-28T06:45:26;52.08;;;20.83;;
63087;SDS011;49173;43.164;27.786;2022-10-28T06:47:54;36.45;;;20.23;;
63087;SDS011;49173;43.164;27.786;2022-10-28T06:50:24;45.92;;;20.20;;
63087;SDS011;49173;43.164;27.786;2022-10-28T06:52:50;40.22;;;22.08;;
63087;SDS011;49173;43.164;27.786;2022-10-28T06:55:16;45.15;;;21.65;;
63087;SDS011;49173;43.164;27.786;2022-10-28T06:57:42;39.10;;;21.58;;
63087;SDS011;49173;43.164;27.786;2022-10-28T07:00:08;41.28;;;22.60;;
63087;SDS011;49173;43.164;27.786;2022-10-28T07:02:35;40.70;;;22.33;;
63087;SDS011;49173;43.164;27.786;2022-10-28T07:05:01;38.22;;;21.15;;
63087;SDS011;49173;43.164;27.786;2022-10-28T07:07:27;37.97;;;21.08;;
63087;SDS011;49173;43.164;27.786;2022-10-28T07:09:52;42.08;;;22.02;;
63087;SDS011;49173;43.164;27.786;2022-10-28T07:12:18;36.42;;;21.27;;
63087;SDS011;49173;43.164;27.786;2022-10-28T07:14:44;38.05;;;21.55;;
63087;SDS011;49173;43.164;27.786;2022-10-28T07:17:10;42.30;;;21.48;;
63087;SDS011;49173;43.164;27.786;2022-10-28T07:19:35;36.83;;;21.70;;
63087;SDS011;49173;43.164;27.786;2022-10-28T07:22:09;39.00;;;21.58;;
63087;SDS011;49173;43.164;27.786;2022-10-28T07:24:35;39.28;;;20.52;;
63087;SDS011;49173;43.164;27.786;2022-10-28T07:27:00;43.05;;;23.10;;
63087;SDS011;49173;43.164;27.786;2022-10-28T07:29:26;47.95;;;24.17;;
63087;SDS011;49173;43.164;27.786;2022-10-28T07:31:55;47.13;;;24.88;;
63087;SDS011;49173;43.164;27.786;2022-10-28T07:34:21;43.95;;;24.83;;
63087;SDS011;49173;43.164;27.786;2022-10-28T07:36:48;46.33;;;22.48;;
63087;SDS011;49173;43.164;27.786;2022-10-28T07:39:15;46.55;;;23.65;;
63087;SDS011;49173;43.164;27.786;2022-10-28T07:41:41;42.45;;;23.17;;
63087;SDS011;49173;43.164;27.786;2022-10-28T07:44:07;39.58;;;21.27;;
63087;SDS011;49173;43.164;27.786;2022-10-28T07:46:32;37.55;;;22.13;;
63087;SDS011;49173;43.164;27.786;2022-10-28T07:48:58;36.90;;;20.80;;
63087;SDS011;49173;43.164;27.786;2022-10-28T07:51:24;38.33;;;20.98;;
63087;SDS011;49173;43.164;27.786;2022-10-28T07:53:50;33.88;;;20.88;;
63087;SDS011;49173;43.164;27.786;2022-10-28T07:56:16;36.63;;;20.27;;
63087;SDS011;49173;43.164;27.786;2022-10-28T07:58:43;34.92;;;20.38;;
63087;SDS011;49173;43.164;27.786;2022-10-28T08:01:10;35.92;;;20.35;;
63087;SDS011;49173;43.164;27.786;2022-10-28T08:03:38;31.40;;;16.52;;
63087;SDS011;49173;43.164;27.786;2022-10-28T08:06:05;25.45;;;15.05;;
63087;SDS011;49173;43.164;27.786;2022-10-28T08:08:36;21.63;;;12.63;;
63087;SDS011;49173;43.164;27.786;2022-10-28T08:11:10;23.42;;;14.20;;
63087;SDS011;49173;43.164;27.786;2022-10-28T08:13:37;40.88;;;20.67;;
63087;SDS011;49173;43.164;27.786;2022-10-28T08:16:04;40.47;;;20.95;;
63087;SDS011;49173;43.164;27.786;2022-10-28T08:18:30;32.55;;;20.85;;
63087;SDS011;49173;43.164;27.786;2022-10-28T08:20:59;37.67;;;22.20;;
63087;SDS011;49173;43.164;27.786;2022-10-28T08:23:27;40.05;;;24.00;;
63087;SDS011;49173;43.164;27.786;2022-10-28T08:25:53;41.08;;;21.98;;
63087;SDS011;49173;43.164;27.786;2022-10-28T08:28:19;39.45;;;22.48;;
63087;SDS011;49173;43.164;27.786;2022-10-28T08:30:46;36.45;;;23.85;;
63087;SDS011;49173;43.164;27.786;2022-10-28T08:33:12;41.00;;;25.33;;
63087;SDS011;49173;43.164;27.786;2022-10-28T08:35:39;41.75;;;26.40;;
63087;SDS011;49173;43.164;27.786;2022-10-28T08:38:05;37.85;;;25.08;;
63087;SDS011;49173;43.164;27.786;2022-10-28T08:40:36;40.22;;;26.42;;
63087;SDS011;49173;43.164;27.786;2022-10-28T08:43:16;38.25;;;25.52;;
63087;SDS011;49173;43.164;27.786;2022-10-28T08:46:04;38.50;;;25.08;;
63087;SDS011;49173;43.164;27.786;2022-10-28T08:48:38;39.50;;;25.40;;
63087;SDS011;49173;43.164;27.786;2022-10-28T08:51:29;42.08;;;26.08;;
63087;SDS011;49173;43.164;27.786;2022-10-28T08:53:57;32.37;;;20.37;;
63087;SDS011;49173;43.164;27.786;2022-10-28T08:56:36;38.60;;;22.83;;
63087;SDS011;49173;43.164;27.786;2022-10-28T08:59:21;36.33;;;22.52;;
63087;SDS011;49173;43.164;27.786;2022-10-28T09:02:02;28.63;;;16.85;;
63087;SDS011;49173;43.164;27.786;2022-10-28T09:07:21;17.67;;;11.38;;
63087;SDS011;49173;43.164;27.786;2022-10-28T09:09:49;15.50;;;7.85;;
63087;SDS011;49173;43.164;27.786;2022-10-28T09:12:26;12.27;;;7.43;;
63087;SDS011;49173;43.164;27.786;2022-10-28T09:18:18;11.73;;;7.15;;
63087;SDS011;49173;43.164;27.786;2022-10-28T09:20:56;15.35;;;7.20;;
63087;SDS011;49173;43.164;27.786;2022-10-28T09:23:34;13.50;;;7.30;;
63087;SDS011;49173;43.164;27.786;2022-10-28T09:26:08;12.95;;;7.45;;
63087;SDS011;49173;43.164;27.786;2022-10-28T09:29:08;9.85;;;5.70;;
63087;SDS011;49173;43.164;27.786;2022-10-28T09:31:46;11.57;;;5.55;;
63087;SDS011;49173;43.164;27.786;2022-10-28T09:34:21;9.38;;;4.82;;
63087;SDS011;49173;43.164;27.786;2022-10-28T09:37:18;7.20;;;5.28;;
63087;SDS011;49173;43.164;27.786;2022-10-28T09:39:49;13.60;;;5.38;;
63087;SDS011;49173;43.164;27.786;2022-10-28T09:42:21;9.60;;;4.90;;
63087;SDS011;49173;43.164;27.786;2022-10-28T09:44:55;9.23;;;5.10;;
63087;SDS011;49173;43.164;27.786;2022-10-28T09:47:29;7.90;;;4.30;;
63087;SDS011;49173;43.164;27.786;2022-10-28T09:50:04;9.10;;;4.28;;
63087;SDS011;49173;43.164;27.786;2022-10-28T09:52:42;6.53;;;4.03;;
63087;SDS011;49173;43.164;27.786;2022-10-28T09:55:34;7.57;;;4.10;;
63087;SDS011;49173;43.164;27.786;2022-10-28T09:58:01;5.32;;;3.97;;
63087;SDS011;49173;43.164;27.786;2022-10-28T10:00:28;8.40;;;4.00;;
63087;SDS011;49173;43.164;27.786;2022-10-28T10:02:55;6.38;;;3.72;;
63087;SDS011;49173;43.164;27.786;2022-10-28T10:05:22;10.35;;;4.05;;
63087;SDS011;49173;43.164;27.786;2022-10-28T10:07:59;6.95;;;4.10;;
63087;SDS011;49173;43.164;27.786;2022-10-28T10:10:39;5.90;;;3.20;;
63087;SDS011;49173;43.164;27.786;2022-10-28T10:13:12;4.53;;;3.45;;
63087;SDS011;49173;43.164;27.786;2022-10-28T10:15:42;6.78;;;3.50;;
63087;SDS011;49173;43.164;27.786;2022-10-28T10:18:14;5.38;;;3.30;;
63087;SDS011;49173;43.164;27.786;2022-10-28T10:23:31;5.60;;;2.58;;
63087;SDS011;49173;43.164;27.786;2022-10-28T10:28:47;4.78;;;2.60;;
63087;SDS011;49173;43.164;27.786;2022-10-28T10:31:24;6.63;;;3.20;;
63087;SDS011;49173;43.164;27.786;2022-10-28T10:33:56;5.75;;;3.30;;
63087;SDS011;49173;43.164;27.786;2022-10-28T10:36:23;6.20;;;3.15;;
63087;SDS011;49173;43.164;27.786;2022-10-28T10:38:53;7.63;;;3.25;;
63087;SDS011;49173;43.164;27.786;2022-10-28T10:49:28;6.53;;;3.33;;
63087;SDS011;49173;43.164;27.786;2022-10-28T10:51:54;13.25;;;4.05;;
63087;SDS011;49173;43.164;27.786;2022-10-28T10:54:26;8.75;;;3.88;;
63087;SDS011;49173;43.164;27.786;2022-10-28T10:57:13;4.93;;;3.22;;
63087;SDS011;49173;43.164;27.786;2022-10-28T10:59:44;8.27;;;3.38;;
63087;SDS011;49173;43.164;27.786;2022-10-28T11:02:22;5.65;;;3.50;;
63087;SDS011;49173;43.164;27.786;2022-10-28T11:04:50;5.63;;;3.35;;
63087;SDS011;49173;43.164;27.786;2022-10-28T11:07:17;5.15;;;3.30;;
63087;SDS011;49173;43.164;27.786;2022-10-28T11:09:46;11.07;;;3.42;;
63087;SDS011;49173;43.164;27.786;2022-10-28T11:12:27;9.93;;;3.35;;
63087;SDS011;49173;43.164;27.786;2022-10-28T11:15:00;9.80;;;3.38;;
63087;SDS011;49173;43.164;27.786;2022-10-28T11:17:29;10.13;;;3.33;;
63087;SDS011;49173;43.164;27.786;2022-10-28T11:20:06;7.78;;;3.95;;
63087;SDS011;49173;43.164;27.786;2022-10-28T11:22:53;4.93;;;3.60;;
63087;SDS011;49173;43.164;27.786;2022-10-28T11:25:44;11.05;;;4.07;;
63087;SDS011;49173;43.164;27.786;2022-10-28T11:31:09;7.47;;;3.60;;
63087;SDS011;49173;43.164;27.786;2022-10-28T11:33:40;7.45;;;3.90;;
63087;SDS011;49173;43.164;27.786;2022-10-28T11:36:20;7.72;;;3.97;;
63087;SDS011;49173;43.164;27.786;2022-10-28T11:41:41;5.95;;;3.83;;
63087;SDS011;49173;43.164;27.786;2022-10-28T11:57:29;9.00;;;4.10;;
63087;SDS011;49173;43.164;27.786;2022-10-28T12:00:02;9.77;;;4.20;;
63087;SDS011;49173;43.164;27.786;2022-10-28T12:05:59;8.48;;;4.35;;
63087;SDS011;49173;43.164;27.786;2022-10-28T12:08:52;7.55;;;3.42;;
63087;SDS011;49173;43.164;27.786;2022-10-28T12:17:04;6.05;;;3.90;;
63087;SDS011;49173;43.164;27.786;2022-10-28T12:22:50;8.52;;;4.20;;
63087;SDS011;49173;43.164;27.786;2022-10-28T12:25:20;5.53;;;3.92;;
63087;SDS011;49173;43.164;27.786;2022-10-28T12:27:50;9.25;;;4.05;;
63087;SDS011;49173;43.164;27.786;2022-10-28T12:30:23;8.30;;;4.22;;
63087;SDS011;49173;43.164;27.786;2022-10-28T12:32:53;7.10;;;4.05;;
63087;SDS011;49173;43.164;27.786;2022-10-28T12:35:26;6.72;;;3.65;;
63087;SDS011;49173;43.164;27.786;2022-10-28T12:38:12;6.10;;;3.65;;
63087;SDS011;49173;43.164;27.786;2022-10-28T12:40:51;7.10;;;3.60;;
63087;SDS011;49173;43.164;27.786;2022-10-28T12:43:54;9.32;;;3.60;;
63087;SDS011;49173;43.164;27.786;2022-10-28T12:49:24;9.13;;;3.80;;
63087;SDS011;49173;43.164;27.786;2022-10-28T12:51:59;7.00;;;4.00;;
63087;SDS011;49173;43.164;27.786;2022-10-28T12:54:57;8.00;;;3.65;;
63087;SDS011;49173;43.164;27.786;2022-10-28T12:57:50;5.95;;;3.47;;
63087;SDS011;49173;43.164;27.786;2022-10-28T13:00:25;5.00;;;3.55;;
63087;SDS011;49173;43.164;27.786;2022-10-28T13:02:58;6.32;;;3.70;;
63087;SDS011;49173;43.164;27.786;2022-10-28T13:05:41;8.00;;;3.58;;
63087;SDS011;49173;43.164;27.786;2022-10-28T13:08:25;9.80;;;3.33;;
63087;SDS011;49173;43.164;27.786;2022-10-28T13:14:09;5.13;;;3.42;;
63087;SDS011;49173;43.164;27.786;2022-10-28T13:22:47;6.97;;;3.40;;
63087;SDS011;49173;43.164;27.786;2022-10-28T13:28:12;6.00;;;3.33;;
63087;SDS011;49173;43.164;27.786;2022-10-28T13:30:57;7.40;;;3.30;;
63087;SDS011;49173;43.164;27.786;2022-10-28T13:33:25;8.23;;;3.83;;
63087;SDS011;49173;43.164;27.786;2022-10-28T13:35:54;7.15;;;3.10;;
63087;SDS011;49173;43.164;27.786;2022-10-28T13:38:40;7.03;;;3.55;;
63087;SDS011;49173;43.164;27.786;2022-10-28T13:41:07;4.85;;;3.60;;
63087;SDS011;49173;43.164;27.786;2022-10-28T13:49:24;10.27;;;3.67;;
63087;SDS011;49173;43.164;27.786;2022-10-28T13:52:02;9.32;;;3.72;;
63087;SDS011;49173;43.164;27.786;2022-10-28T13:59:53;6.30;;;3.80;;
63087;SDS011;49173;43.164;27.786;2022-10-28T14:02:34;5.93;;;4.07;;
63087;SDS011;49173;43.164;27.786;2022-10-28T14:05:15;7.55;;;3.60;;
63087;SDS011;49173;43.164;27.786;2022-10-28T14:07:50;6.07;;;3.75;;
63087;SDS011;49173;43.164;27.786;2022-10-28T14:10:24;8.60;;;4.15;;
63087;SDS011;49173;43.164;27.786;2022-10-28T14:12:58;5.68;;;3.78;;
63087;SDS011;49173;43.164;27.786;2022-10-28T14:15:32;6.88;;;3.97;;
63087;SDS011;49173;43.164;27.786;2022-10-28T14:18:16;5.90;;;3.60;;
63087;SDS011;49173;43.164;27.786;2022-10-28T14:41:36;7.10;;;4.82;;
63087;SDS011;49173;43.164;27.786;2022-10-28T14:49:40;7.22;;;4.57;;
63087;SDS011;49173;43.164;27.786;2022-10-28T14:52:21;7.80;;;4.40;;
63087;SDS011;49173;43.164;27.786;2022-10-28T14:54:50;7.72;;;4.50;;
63087;SDS011;49173;43.164;27.786;2022-10-28T14:57:20;6.70;;;4.13;;
63087;SDS011;49173;43.164;27.786;2022-10-28T14:59:55;6.15;;;4.05;;
63087;SDS011;49173;43.164;27.786;2022-10-28T15:02:29;7.85;;;4.90;;
63087;SDS011;49173;43.164;27.786;2022-10-28T15:04:58;6.53;;;4.50;;
63087;SDS011;49173;43.164;27.786;2022-10-28T15:07:38;11.95;;;5.80;;
63087;SDS011;49173;43.164;27.786;2022-10-28T15:10:17;8.07;;;4.85;;
63087;SDS011;49173;43.164;27.786;2022-10-28T15:12:47;9.30;;;4.85;;
63087;SDS011;49173;43.164;27.786;2022-10-28T15:15:24;8.48;;;4.78;;
63087;SDS011;49173;43.164;27.786;2022-10-28T15:17:51;8.27;;;4.78;;
63087;SDS011;49173;43.164;27.786;2022-10-28T15:20:28;9.38;;;4.95;;
63087;SDS011;49173;43.164;27.786;2022-10-28T15:25:40;10.23;;;5.13;;
63087;SDS011;49173;43.164;27.786;2022-10-28T15:28:11;8.00;;;6.00;;
63087;SDS011;49173;43.164;27.786;2022-10-28T15:30:39;7.95;;;5.22;;
63087;SDS011;49173;43.164;27.786;2022-10-28T15:33:16;7.70;;;5.60;;
63087;SDS011;49173;43.164;27.786;2022-10-28T15:35:45;18.92;;;14.00;;
63087;SDS011;49173;43.164;27.786;2022-10-28T15:40:56;14.68;;;11.00;;
63087;SDS011;49173;43.164;27.786;2022-10-28T15:43:29;8.95;;;6.05;;
63087;SDS011;49173;43.164;27.786;2022-10-28T15:46:06;9.52;;;5.95;;
63087;SDS011;49173;43.164;27.786;2022-10-28T15:48:35;8.38;;;5.90;;
63087;SDS011;49173;43.164;27.786;2022-10-28T15:51:09;8.77;;;5.40;;
63087;SDS011;49173;43.164;27.786;2022-10-28T15:53:39;12.57;;;6.05;;
63087;SDS011;49173;43.164;27.786;2022-10-28T15:58:38;10.93;;;6.40;;
63087;SDS011;49173;43.164;27.786;2022-10-28T16:01:07;12.68;;;6.95;;
63087;SDS011;49173;43.164;27.786;2022-10-28T16:03:48;14.27;;;8.13;;
63087;SDS011;49173;43.164;27.786;2022-10-28T16:08:45;17.98;;;11.00;;
63087;SDS011;49173;43.164;27.786;2022-10-28T16:11:14;18.75;;;11.45;;
63087;SDS011;49173;43.164;27.786;2022-10-28T16:13:45;16.77;;;11.35;;
63087;SDS011;49173;43.164;27.786;2022-10-28T16:16:23;15.60;;;10.52;;
63087;SDS011;49173;43.164;27.786;2022-10-28T16:21:44;10.52;;;7.43;;
63087;SDS011;49173;43.164;27.786;2022-10-28T16:24:10;9.07;;;6.47;;
63087;SDS011;49173;43.164;27.786;2022-10-28T16:26:35;11.60;;;6.38;;
63087;SDS011;49173;43.164;27.786;2022-10-28T16:29:01;9.02;;;6.05;;
63087;SDS011;49173;43.164;27.786;2022-10-28T16:31:28;6.05;;;5.18;;
63087;SDS011;49173;43.164;27.786;2022-10-28T16:33:56;8.55;;;5.47;;
63087;SDS011;49173;43.164;27.786;2022-10-28T16:36:22;9.50;;;6.10;;
63087;SDS011;49173;43.164;27.786;2022-10-28T16:38:48;11.77;;;6.22;;
63087;SDS011;49173;43.164;27.786;2022-10-28T16:41:15;10.48;;;6.38;;
63087;SDS011;49173;43.164;27.786;2022-10-28T16:43:42;12.70;;;6.82;;
63087;SDS011;49173;43.164;27.786;2022-10-28T16:46:12;8.63;;;6.95;;
63087;SDS011;49173;43.164;27.786;2022-10-28T16:48:39;9.20;;;6.93;;
63087;SDS011;49173;43.164;27.786;2022-10-28T16:51:10;9.02;;;6.43;;
63087;SDS011;49173;43.164;27.786;2022-10-28T16:53:39;13.57;;;6.50;;
63087;SDS011;49173;43.164;27.786;2022-10-28T16:56:07;13.20;;;8.30;;
63087;SDS011;49173;43.164;27.786;2022-10-28T16:58:32;13.80;;;10.70;;
63087;SDS011;49173;43.164;27.786;2022-10-28T17:00:58;12.68;;;7.78;;
63087;SDS011;49173;43.164;27.786;2022-10-28T17:03:25;10.20;;;6.28;;
63087;SDS011;49173;43.164;27.786;2022-10-28T17:05:50;9.48;;;6.00;;
63087;SDS011;49173;43.164;27.786;2022-10-28T17:08:16;10.93;;;5.88;;
63087;SDS011;49173;43.164;27.786;2022-10-28T17:10:42;11.52;;;6.38;;
63087;SDS011;49173;43.164;27.786;2022-10-28T17:13:10;15.00;;;6.43;;
63087;SDS011;49173;43.164;27.786;2022-10-28T17:15:37;10.05;;;5.80;;
63087;SDS011;49173;43.164;27.786;2022-10-28T17:18:03;10.52;;;6.30;;